Aeroporto :
LOGIN :

Iscrizione | Disclaimer

   EN    FR    IT 

 










Sommario :    VFR   VFR Marginale   IFR   IFR Intensivo   IFR Molto Intensivo
Visibilità : 
Base nubi : 
>= 8 km
>= 3000ft
5 / 8 km
1000 / 3000 ft
1500m / 5 km
500 / 1000 ft
800 / 1500m
200 / 500 ft
< 800m
< 200 ft
Simboli :   Temporali  Nebbia  Neve Forte  Precipitazioni Forti  Vento > 20 kt
SIGMETs :   Varie  Temporali  Ghiacco  Turbolenza  Onda orograficha  Ceneri Vulcaniche






- Altitudine del aeroporto : 288 ft
- Codice IATA : BZZ


EGVN - RAF Brize Norton

ULTIMO METAR :
  • 020620Z 09008KT 9999 FEW008 BKN010 04/04 Q0985 BECMG BKN015 RMK GRN BECMG WHT

METARs OBSOLETI :
  • 020550Z 11014KT 9999 -SHRA BKN010 04/03 Q0986 BECMG BKN015
  • 020520Z 09011KT 6000 -SHRA BKN009 04/03 Q0986 RESHRA TEMPO 4000 SHRA RMK GRN TEMPO GRN
  • 020503Z 08010KT 5000 SHRA BKN010 03/03 Q0986 TEMPO 3000 +SHRA RMK GRN TEMPO YLO1
  • 020450Z 07011KT 9999 SCT010 BKN014 03/03 Q0986 TEMPO 4000 SHRA RMK GRN TEMPO GRN
  • 020420Z 08007KT 9999 BKN012 03/03 Q0987 TEMPO 4000 SHRA
  • 012050Z 14006KT 9999 FEW028 SCT120 03/02 Q0989 NOSIG RMK BLU BLU
  • 020350Z 12007KT 9999 -SHRA FEW008 BKN012 03/02 Q0987 RESHRA TEMPO 4000 SHRA
  • 020320Z 12010KT 9999 -SHRA FEW007 BKN012 04/03 Q0987 TEMPO 5000 SHRA RMK GRN TEMPO GRN
  • 020250Z 12008KT 9999 -SHRA BKN012 03/03 Q0988 TEMPO 5000 SHRA SCT010CB RMK GRN TEMPO GRN
  • 020220Z 11007KT 9999 -SHRA FEW009 BKN017 03/03 Q0988 TEMPO 5000 SHRA SCT010 RMK WHT TEMPO GRN
  • 020150Z 11007KT 9999 -SHRA FEW009 BKN014 03/03 Q0988 TEMPO 5000 SHRA RMK GRN TEMPO GRN
  • 020120Z 12006KT 9999 FEW009 BKN020 03/02 Q0988 BECMG SCT025 RMK WHT BECMG BLU

TAF TAF EGVN
Valido dal 02 a 06 ore il 03 a 06 ore UTC


020431Z 0206/0306 12010KT 9999 FEW030
TEMPO 0206/0210 6000 SHRA BKN012
PROB30
TEMPO 0206/0210 3000 +SHRA SCT010CB
TEMPO 0210/0224 BKN020
PROB40
TEMPO 0210/0220 5000 SHRA SCT014
PROB30
TEMPO 0210/0218 3000 +SHRA SCT010CB
PROB40 0301/0306 4000 BR
PROB30 0303/0306 2000 MIFG BR



MetMap, La meteo Aeronautica in un colpo d'occhio ! - Copyright ORBIFLY Dicembre 2007 - Disclaimer

ORBIFLY MET'MAP TEAM :

Programmazione e sviluppo : Alexandra Zaïnal
Concezione : Baudouin d'Aumeries
Supporto tecnico e logistico : Manuel Goepfert
Aiuto : Marc-Olivier Méhu
Aiuto per la traduzione : Arnaldo La Scala




FONTI E CREDITI :

   NOAA